createdAt,value
2018-07-27T00:00:47.267Z,6.43
2018-07-27T00:05:39.853Z,5.47
2018-07-27T00:10:32.505Z,5.60
2018-07-27T00:15:25.074Z,6.00
2018-07-27T00:20:17.636Z,6.00
2018-07-27T00:25:10.183Z,6.57
2018-07-27T00:30:03.203Z,6.57
2018-07-27T00:34:55.812Z,6.20
2018-07-27T00:39:48.665Z,6.40
2018-07-27T00:44:41.290Z,6.60
2018-07-27T00:49:33.863Z,6.73
2018-07-27T00:54:26.470Z,6.90
2018-07-27T00:59:19.070Z,6.40
2018-07-27T01:04:11.767Z,7.00
2018-07-27T01:09:07.343Z,6.77
2018-07-27T01:13:59.982Z,7.30
2018-07-27T01:18:52.556Z,7.27
2018-07-27T01:23:45.145Z,7.33
2018-07-27T01:28:37.689Z,7.47
2018-07-27T01:33:30.281Z,7.23
2018-07-27T01:38:22.809Z,7.57
2018-07-27T01:43:15.414Z,7.40
2018-07-27T01:48:08.044Z,7.43
2018-07-27T01:53:00.644Z,8.03
2018-07-27T01:57:53.265Z,7.30
2018-07-27T02:02:45.850Z,7.90
2018-07-27T02:07:38.495Z,8.03
2018-07-27T02:12:31.104Z,7.73
2018-07-27T02:17:23.713Z,8.13
2018-07-27T02:22:16.323Z,7.70
2018-07-27T02:27:08.907Z,8.80
2018-07-27T02:32:01.545Z,8.73
2018-07-27T02:36:54.131Z,8.87
2018-07-27T02:41:46.754Z,9.63
2018-07-27T02:46:39.419Z,9.20
2018-07-27T02:51:32.031Z,9.53
2018-07-27T02:56:24.655Z,9.17
2018-07-27T03:01:17.198Z,9.10
2018-07-27T03:06:09.806Z,9.73
2018-07-27T03:11:02.463Z,9.87
2018-07-27T03:15:55.184Z,9.07
2018-07-27T03:20:47.787Z,10.50
2018-07-27T03:25:40.398Z,10.63
2018-07-27T03:30:32.966Z,10.30
2018-07-27T03:35:25.544Z,10.90
2018-07-27T03:40:18.153Z,12.33
2018-07-27T03:45:10.762Z,12.87
2018-07-27T03:50:03.899Z,13.17
2018-07-27T03:54:56.490Z,13.70
2018-07-27T03:59:49.105Z,12.37
2018-07-27T04:04:41.773Z,11.20
2018-07-27T04:09:34.485Z,10.57
2018-07-27T04:14:27.975Z,11.13
2018-07-27T04:19:20.885Z,10.60
2018-07-27T04:24:13.767Z,11.03
2018-07-27T04:29:06.391Z,10.70
2018-07-27T04:33:58.994Z,10.37
2018-07-27T04:38:51.627Z,10.20
2018-07-27T04:43:44.518Z,10.07
2018-07-27T04:48:37.291Z,9.63
2018-07-27T04:53:29.926Z,10.30
2018-07-27T04:58:22.659Z,10.07
2018-07-27T05:03:15.303Z,10.60
2018-07-27T05:08:07.939Z,10.30
2018-07-27T05:13:00.667Z,10.33
2018-07-27T05:17:53.393Z,10.20
2018-07-27T05:22:46.158Z,9.90
2018-07-27T05:27:38.817Z,10.17
2018-07-27T05:32:31.426Z,10.33
2018-07-27T05:37:24.054Z,10.87
2018-07-27T05:42:16.848Z,10.90
2018-07-27T05:47:09.540Z,10.80
2018-07-27T05:52:02.184Z,10.70
2018-07-27T05:56:54.952Z,10.40
2018-07-27T06:01:47.551Z,10.97
2018-07-27T06:06:40.232Z,9.93
2018-07-27T06:11:33.021Z,10.50
2018-07-27T06:16:25.705Z,10.33
2018-07-27T06:21:18.723Z,9.83
2018-07-27T06:26:11.455Z,10.17
2018-07-27T06:31:04.227Z,10.00
2018-07-27T06:35:56.875Z,11.00
2018-07-27T06:40:49.532Z,11.03
2018-07-27T06:45:43.453Z,10.10
2018-07-27T06:50:36.126Z,10.53
2018-07-27T06:55:29.110Z,10.87
2018-07-27T07:00:21.823Z,10.00
2018-07-27T07:05:14.465Z,9.70
2018-07-27T07:10:07.147Z,10.57
2018-07-27T07:14:59.965Z,10.20
2018-07-27T07:19:52.530Z,10.10
2018-07-27T07:24:45.187Z,9.30
2018-07-27T07:29:37.775Z,9.47
2018-07-27T07:34:30.423Z,8.23
2018-07-27T07:39:23.372Z,8.73
2018-07-27T07:44:16.033Z,7.87
2018-07-27T07:49:08.716Z,7.47
2018-07-27T07:54:01.642Z,7.30
2018-07-27T07:58:54.664Z,8.10
2018-07-27T08:03:47.251Z,8.00
2018-07-27T08:08:40.029Z,7.47
2018-07-27T08:13:32.686Z,6.83
2018-07-27T08:18:25.332Z,7.40
2018-07-27T08:23:18.083Z,7.30
2018-07-27T08:28:28.199Z,6.80
2018-07-27T08:33:20.892Z,6.60
2018-07-27T08:38:13.514Z,7.17
2018-07-27T08:43:06.384Z,6.83
2018-07-27T08:47:59.186Z,7.60
2018-07-27T08:52:51.914Z,7.80
2018-07-27T08:57:44.665Z,6.70
2018-07-27T09:02:37.373Z,7.53
2018-07-27T09:07:29.980Z,7.60
2018-07-27T09:12:22.679Z,7.03
2018-07-27T09:17:15.373Z,6.57
2018-07-27T09:22:08.018Z,6.80
2018-07-27T09:27:00.616Z,6.43
2018-07-27T09:31:53.226Z,6.90
2018-07-27T09:36:45.865Z,6.30
2018-07-27T09:41:38.458Z,6.00
2018-07-27T09:46:31.057Z,6.67
2018-07-27T09:51:24.283Z,6.17
2018-07-27T09:56:16.961Z,5.97
2018-07-27T10:01:15.342Z,5.60
2018-07-27T10:06:08.102Z,4.70
2018-07-27T10:11:00.675Z,4.83
2018-07-27T10:15:53.314Z,5.27
2018-07-27T10:20:45.833Z,5.03
2018-07-27T10:25:38.556Z,5.40
2018-07-27T10:30:31.861Z,5.57
2018-07-27T10:35:24.503Z,5.47
2018-07-27T10:40:17.147Z,5.57
2018-07-27T10:45:09.841Z,4.97
2018-07-27T10:50:02.430Z,5.30
2018-07-27T10:54:55.063Z,4.80
2018-07-27T10:59:47.691Z,6.70
2018-07-27T11:04:40.201Z,5.20
2018-07-27T11:09:32.890Z,5.77
2018-07-27T11:14:25.461Z,5.70
2018-07-27T11:19:18.148Z,5.37
2018-07-27T11:24:10.921Z,5.00
2018-07-27T11:29:03.710Z,4.97
2018-07-27T11:33:56.407Z,5.13
2018-07-27T11:38:49.063Z,8.90
2018-07-27T11:43:42.010Z,7.93
2018-07-27T11:48:34.740Z,8.03
2018-07-27T11:53:27.516Z,5.40
2018-07-27T11:58:20.154Z,4.83
2018-07-27T12:03:12.823Z,5.33
2018-07-27T12:08:05.453Z,4.73
2018-07-27T12:12:58.053Z,4.83
2018-07-27T12:17:50.704Z,4.60
2018-07-27T12:22:43.521Z,4.47
2018-07-27T12:27:36.175Z,4.40
2018-07-27T12:32:28.958Z,4.37
2018-07-27T12:37:21.617Z,4.60
2018-07-27T12:42:14.318Z,4.60
2018-07-27T12:47:09.114Z,4.60
2018-07-27T12:52:01.881Z,4.50
2018-07-27T12:56:54.573Z,4.63
2018-07-27T13:01:47.304Z,4.70
2018-07-27T13:06:42.900Z,4.43
2018-07-27T13:11:35.797Z,4.60
2018-07-27T13:16:28.492Z,4.60
2018-07-27T13:21:22.030Z,4.23
2018-07-27T13:31:08.777Z,4.10
2018-07-27T13:40:55.453Z,4.13
2018-07-27T13:45:48.122Z,4.20
2018-07-27T13:50:40.990Z,4.77
2018-07-27T13:55:33.588Z,4.37
2018-07-27T14:00:26.232Z,4.13
2018-07-27T14:05:19.169Z,4.80
2018-07-27T14:10:11.993Z,4.33
2018-07-27T14:15:04.657Z,4.10
2018-07-27T14:19:57.361Z,4.30
2018-07-27T14:24:50.063Z,4.70
2018-07-27T14:29:42.689Z,4.47
2018-07-27T14:34:35.390Z,3.77
2018-07-27T14:39:27.989Z,4.23
2018-07-27T14:44:20.747Z,4.30
2018-07-27T14:49:14.791Z,4.23
2018-07-27T14:54:08.573Z,4.00
2018-07-27T14:59:01.267Z,4.20
2018-07-27T15:03:53.920Z,4.33
2018-07-27T15:08:46.968Z,3.77
2018-07-27T15:13:39.605Z,4.53
2018-07-27T15:18:32.388Z,4.40
2018-07-27T15:23:25.196Z,4.33
2018-07-27T15:28:17.890Z,4.27
2018-07-27T15:33:10.691Z,4.50
2018-07-27T15:38:03.309Z,3.93
2018-07-27T15:42:56.054Z,4.27
2018-07-27T15:47:48.624Z,4.20
2018-07-27T15:52:41.202Z,4.23
2018-07-27T15:57:33.792Z,4.10
2018-07-27T16:02:26.616Z,4.10
2018-07-27T16:07:19.396Z,4.43
2018-07-27T16:12:12.119Z,4.40
2018-07-27T16:17:04.794Z,4.40
2018-07-27T16:21:58.117Z,4.60
2018-07-27T16:26:50.794Z,4.83
2018-07-27T16:31:43.404Z,4.80
2018-07-27T16:36:35.985Z,4.60
2018-07-27T16:41:28.544Z,4.50
2018-07-27T16:46:21.171Z,4.40
2018-07-27T16:51:13.877Z,4.37
2018-07-27T16:56:06.711Z,4.83
2018-07-27T17:00:59.341Z,4.43
2018-07-27T17:05:51.925Z,4.77
2018-07-27T17:10:44.483Z,4.70
2018-07-27T17:15:37.181Z,5.10
2018-07-27T17:20:29.709Z,5.50
2018-07-27T17:25:22.339Z,5.80
2018-07-27T17:30:14.922Z,5.37
2018-07-27T17:35:07.580Z,5.37
2018-07-27T17:40:00.201Z,5.37
2018-07-27T17:44:52.764Z,5.30
2018-07-27T17:49:45.324Z,4.80
2018-07-27T17:54:37.899Z,4.70
2018-07-27T17:59:30.554Z,5.10
2018-07-27T18:04:23.270Z,5.47
2018-07-27T18:09:16.060Z,5.03
2018-07-27T18:14:08.948Z,4.87
2018-07-27T18:19:01.642Z,6.00
2018-07-27T18:23:54.191Z,6.23
2018-07-27T18:28:46.852Z,5.47
2018-07-27T18:33:39.374Z,6.43
2018-07-27T18:38:31.998Z,6.00
2018-07-27T18:43:24.667Z,6.10
2018-07-27T18:48:17.219Z,6.33
2018-07-27T18:53:09.777Z,6.23
2018-07-27T18:58:02.331Z,6.33
2018-07-27T19:02:54.973Z,6.70
2018-07-27T19:07:47.600Z,7.13
2018-07-27T19:12:40.173Z,6.43
2018-07-27T19:17:32.674Z,6.83
2018-07-27T19:22:25.256Z,7.23
2018-07-27T19:27:17.919Z,8.27
2018-07-27T19:32:10.541Z,8.50
2018-07-27T19:37:03.078Z,8.37
2018-07-27T19:41:55.881Z,8.60
2018-07-27T19:46:48.663Z,8.33
2018-07-27T19:51:41.386Z,8.13
2018-07-27T19:56:33.978Z,7.73
2018-07-27T20:01:26.618Z,8.33
2018-07-27T20:06:19.311Z,7.80
2018-07-27T20:11:11.918Z,8.00
2018-07-27T20:16:04.660Z,7.57
2018-07-27T20:20:57.407Z,9.27
2018-07-27T20:25:51.066Z,8.80
2018-07-27T20:30:43.654Z,7.57
2018-07-27T20:35:36.348Z,8.70
2018-07-27T20:40:29.035Z,8.93
2018-07-27T20:45:21.799Z,8.47
2018-07-27T20:50:14.359Z,9.07
2018-07-27T20:55:07.032Z,10.57
2018-07-27T20:59:59.599Z,9.83
2018-07-27T21:04:52.222Z,8.80
2018-07-27T21:09:44.911Z,8.50
2018-07-27T21:14:37.487Z,8.87
2018-07-27T21:19:30.181Z,8.30
2018-07-27T21:24:24.006Z,8.57
2018-07-27T21:29:16.662Z,8.67
2018-07-27T21:34:09.275Z,7.93
2018-07-27T21:39:02.051Z,7.93
2018-07-27T21:43:55.008Z,7.67
2018-07-27T21:48:47.944Z,8.07
2018-07-27T21:53:40.479Z,7.30
2018-07-27T21:58:33.107Z,7.90
2018-07-27T22:03:25.837Z,8.10
2018-07-27T22:08:18.695Z,8.60
2018-07-27T22:13:11.429Z,8.20
2018-07-27T22:18:04.359Z,8.60
2018-07-27T22:22:57.776Z,8.00
2018-07-27T22:27:50.529Z,8.47
2018-07-27T22:32:43.148Z,9.10
2018-07-27T22:37:36.676Z,9.67
2018-07-27T22:42:29.539Z,9.30
2018-07-27T22:47:22.057Z,8.77
2018-07-27T22:52:14.630Z,8.37
2018-07-27T22:57:07.317Z,7.80
2018-07-27T23:02:00.030Z,7.80
2018-07-27T23:06:52.686Z,8.13
2018-07-27T23:11:45.284Z,8.00
2018-07-27T23:16:37.962Z,8.33
2018-07-27T23:21:30.517Z,8.73
2018-07-27T23:26:23.120Z,8.20
2018-07-27T23:31:15.729Z,8.43
2018-07-27T23:36:08.510Z,8.13
2018-07-27T23:41:01.115Z,7.93
2018-07-27T23:45:53.854Z,8.30
2018-07-27T23:50:46.468Z,8.37
2018-07-27T23:55:39.086Z,8.30
